Bookmark and Share
Track history (hours):
 

Flinterduin

Last reported at 2014-Apr-16 23:05 UTC. Time now 2014-Apr-19 17:07 UTC.
Position N 36°38' E 014°39'.

Length 112 m; beam 15 m.

Type: Cargo ship. MMSI: 246484000.

NotesDate/timePositionNaut miles runAvg speedWind from/ knotsBaromVisibWave heightAir tempDewpointWater temp
2014-Apr-16 23:05N 36°38' E 014°39'712.9
2014-Apr-16 22:34N 36°40' E 014°31'1312.5
2014-Apr-16 21:34N 36°46' E 014°17'1212.4
2014-Apr-16 20:34N 36°53' E 014°04'1312.7
2014-Apr-16 19:34N 37°00' E 013°51'  
2014-Apr-10 06:00N 38°06' E 010°36'3212.4 310 / 61018.4 5.4 1.017.014.6
2014-Apr-10 03:23N 38°19' E 009°58'1112.8
2014-Apr-10 02:31N 38°22' E 009°45'1712.8
2014-Apr-10 01:10N 38°27' E 009°23'1012.6
2014-Apr-10 00:25N 38°30' E 009°12'1212.7
2014-Apr-09 23:26N 38°34' E 008°57'1112.9
2014-Apr-09 22:33N 38°38' E 008°44'1512.9
2014-Apr-09 21:22N 38°44' E 008°25'1213.1
2014-Apr-09 20:25N 38°49' E 008°11'1113.0
2014-Apr-09 19:32N 38°53' E 007°57'2214.4
2014-Apr-09 18:00N 39°00' E 007°30'15012.5 330 / 81019.4 5.4 1.020.013.5
2014-Apr-09 06:00N 40°06' E 004°36'5411.5 340 / 71022.4 5.4 1.020.015.3
2014-Apr-09 01:15N 40°26' E 003°30'811.2
2014-Apr-09 00:33N 40°29' E 003°20'1211.8
2014-Apr-08 23:33N 40°32' E 003°05'1211.9
2014-Apr-08 22:33N 40°36' E 002°50'1212.2
2014-Apr-08 21:33N 40°40' E 002°35'1212.2
2014-Apr-08 20:33N 40°43' E 002°20'1212.0
2014-Apr-08 19:33N 40°48' E 002°05'1212.4
2014-Apr-08 18:33N 40°53' E 001°50'1312.7
2014-Apr-08 17:34N 40°58' E 001°34'1111.1
2014-Apr-08 16:33N 41°01' E 001°20'  

Dump ship's entire track history

sailing weather and tide predictions

Flinterduin — PEBT — position and weather